createdAt,value
2018-08-10T00:00:42.319Z,22.98
2018-08-10T00:01:42.503Z,23.05
2018-08-10T00:02:42.666Z,23.05
2018-08-10T00:03:42.849Z,23.05
2018-08-10T00:04:43.022Z,23.10
2018-08-10T00:05:43.209Z,23.25
2018-08-10T00:06:43.383Z,23.25
2018-08-10T00:07:43.557Z,23.19
2018-08-10T00:08:43.765Z,23.13
2018-08-10T00:09:43.913Z,23.17
2018-08-10T00:11:36.170Z,23.33
2018-08-10T00:12:36.346Z,23.46
2018-08-10T00:13:36.520Z,23.48
2018-08-10T00:14:37.185Z,23.38
2018-08-10T00:15:37.322Z,23.39
2018-08-10T00:16:37.465Z,23.53
2018-08-10T00:17:37.416Z,23.50
2018-08-10T00:18:37.737Z,23.39
2018-08-10T00:19:37.993Z,23.54
2018-08-10T00:20:38.286Z,23.61
2018-08-10T00:21:38.226Z,23.54
2018-08-10T00:22:38.315Z,23.54
2018-08-10T00:23:38.476Z,23.63
2018-08-10T00:24:38.759Z,23.69
2018-08-10T00:25:38.757Z,23.69
2018-08-10T00:26:38.929Z,23.72
2018-08-10T00:27:38.702Z,23.79
2018-08-10T00:28:38.875Z,23.70
2018-08-10T00:29:39.040Z,23.69
2018-08-10T00:30:39.218Z,23.70
2018-08-10T00:31:39.390Z,23.84
2018-08-10T00:32:39.562Z,23.83
2018-08-10T00:33:39.729Z,23.85
2018-08-10T00:34:39.904Z,23.84
2018-08-10T00:35:40.073Z,23.78
2018-08-10T00:36:40.268Z,23.63
2018-08-10T00:37:40.438Z,23.58
2018-08-10T00:38:40.618Z,23.55
2018-08-10T00:39:40.791Z,23.54
2018-08-10T00:40:40.968Z,23.58
2018-08-10T00:41:41.137Z,23.66
2018-08-10T00:42:41.312Z,23.65
2018-08-10T00:43:41.487Z,23.72
2018-08-10T00:44:41.669Z,23.57
2018-08-10T00:45:41.833Z,23.48
2018-08-10T00:46:42.012Z,23.48
2018-08-10T00:47:42.175Z,23.48
2018-08-10T00:48:42.352Z,23.43
2018-08-10T00:49:42.523Z,23.48
2018-08-10T00:50:42.695Z,23.50
2018-08-10T00:51:42.865Z,23.16
2018-08-10T00:52:43.049Z,23.20
2018-08-10T00:53:43.221Z,23.17
2018-08-10T00:54:43.391Z,23.02
2018-08-10T00:55:43.567Z,22.94
2018-08-10T00:56:43.740Z,22.82
2018-08-10T00:57:43.917Z,22.79
2018-08-10T00:58:44.079Z,22.68
2018-08-10T00:59:44.269Z,22.70
2018-08-10T01:00:44.434Z,22.67
2018-08-10T01:01:44.603Z,22.85
2018-08-10T01:02:44.764Z,22.79
2018-08-10T01:03:44.937Z,22.79
2018-08-10T01:04:45.109Z,22.92
2018-08-10T01:05:45.296Z,22.97
2018-08-10T01:06:45.461Z,22.92
2018-08-10T01:07:45.637Z,23.05
2018-08-10T01:08:45.823Z,23.15
2018-08-10T01:09:45.976Z,23.04
2018-08-10T01:10:46.145Z,23.04
2018-08-10T01:11:47.158Z,23.10
2018-08-10T01:12:46.493Z,23.07
2018-08-10T01:13:46.667Z,22.80
2018-08-10T01:14:46.855Z,22.85
2018-08-10T01:15:47.030Z,22.76
2018-08-10T01:16:48.158Z,22.80
2018-08-10T01:17:47.394Z,22.60
2018-08-10T01:18:47.599Z,22.62
2018-08-10T01:19:47.766Z,22.70
2018-08-10T01:20:47.919Z,22.65
2018-08-10T01:21:48.096Z,22.60
2018-08-10T01:22:48.268Z,22.62
2018-08-10T01:23:48.443Z,22.58
2018-08-10T01:24:48.617Z,22.62
2018-08-10T01:25:48.788Z,22.68
2018-08-10T01:26:48.961Z,22.58
2018-08-10T01:27:49.135Z,22.49
2018-08-10T01:28:49.383Z,22.52
2018-08-10T01:29:49.478Z,22.54
2018-08-10T01:30:49.648Z,22.39
2018-08-10T01:31:49.828Z,22.46
2018-08-10T01:32:49.991Z,22.51
2018-08-10T01:33:50.206Z,22.49
2018-08-10T01:34:50.336Z,22.51
2018-08-10T01:35:50.509Z,22.45
2018-08-10T01:36:50.683Z,22.43
2018-08-10T01:37:50.856Z,22.43
2018-08-10T01:38:51.028Z,22.45
2018-08-10T01:39:51.202Z,22.42
2018-08-10T01:40:51.372Z,22.43
2018-08-10T01:41:51.536Z,22.30
2018-08-10T01:42:51.714Z,22.30
2018-08-10T01:43:51.889Z,22.30
2018-08-10T01:44:52.059Z,22.31
2018-08-10T01:45:52.236Z,22.25
2018-08-10T01:46:52.404Z,22.27
2018-08-10T01:47:52.576Z,22.39
2018-08-10T01:48:52.750Z,22.36
2018-08-10T01:49:53.736Z,22.40
2018-08-10T01:50:53.064Z,22.52
2018-08-10T01:51:53.302Z,22.60
2018-08-10T01:52:53.419Z,22.65
2018-08-10T01:53:53.509Z,22.70
2018-08-10T01:54:53.730Z,22.65
2018-08-10T01:55:53.947Z,22.75
2018-08-10T01:56:54.119Z,22.83
2018-08-10T01:57:54.295Z,22.72
2018-08-10T01:58:54.464Z,22.72
2018-08-10T01:59:54.632Z,22.58
2018-08-10T02:00:54.807Z,22.65
2018-08-10T02:01:54.972Z,22.58
2018-08-10T02:02:55.754Z,22.46
2018-08-10T02:03:55.296Z,22.57
2018-08-10T02:04:55.483Z,22.49
2018-08-10T02:05:55.647Z,22.33
2018-08-10T02:06:55.817Z,22.42
2018-08-10T02:07:55.987Z,22.39
2018-08-10T02:08:56.167Z,22.21
2018-08-10T02:09:56.336Z,22.06
2018-08-10T02:10:56.508Z,22.03
2018-08-10T02:11:56.676Z,22.10
2018-08-10T02:12:56.850Z,22.05
2018-08-10T02:13:57.026Z,22.22
2018-08-10T02:14:57.211Z,22.28
2018-08-10T02:15:57.375Z,22.14
2018-08-10T02:16:57.548Z,22.12
2018-08-10T02:17:57.722Z,22.15
2018-08-10T02:18:57.893Z,22.15
2018-08-10T02:19:58.060Z,22.21
2018-08-10T02:20:58.237Z,22.14
2018-08-10T02:21:58.415Z,22.31
2018-08-10T02:22:58.593Z,22.14
2018-08-10T02:23:58.770Z,22.10
2018-08-10T02:24:58.941Z,22.18
2018-08-10T02:25:59.117Z,22.15
2018-08-10T02:26:59.283Z,22.20
2018-08-10T02:27:59.452Z,22.17
2018-08-10T02:28:59.623Z,22.21
2018-08-10T02:29:59.800Z,22.31
2018-08-10T02:30:59.980Z,22.33
2018-08-10T02:32:00.146Z,22.40
2018-08-10T02:33:00.320Z,22.37
2018-08-10T02:34:00.492Z,22.36
2018-08-10T02:35:00.666Z,22.28
2018-08-10T02:36:00.839Z,22.30
2018-08-10T02:37:01.010Z,22.30
2018-08-10T02:38:01.184Z,22.27
2018-08-10T02:39:01.357Z,22.31
2018-08-10T02:40:01.533Z,22.22
2018-08-10T02:41:01.705Z,22.21
2018-08-10T02:42:01.884Z,22.12
2018-08-10T02:43:02.048Z,22.20
2018-08-10T02:44:02.213Z,22.14
2018-08-10T02:45:02.381Z,22.10
2018-08-10T02:46:02.557Z,22.12
2018-08-10T02:47:02.726Z,21.90
2018-08-10T02:48:02.901Z,21.98
2018-08-10T02:49:03.069Z,21.82
2018-08-10T02:50:03.239Z,21.67
2018-08-10T02:51:03.417Z,21.82
2018-08-10T02:52:03.585Z,21.68
2018-08-10T02:53:03.753Z,21.61
2018-08-10T02:54:03.926Z,21.47
2018-08-10T02:55:04.099Z,21.46
2018-08-10T02:56:04.275Z,21.58
2018-08-10T02:57:04.442Z,21.67
2018-08-10T02:58:04.610Z,21.74
2018-08-10T02:59:04.783Z,21.90
2018-08-10T03:00:04.962Z,21.84
2018-08-10T03:01:05.129Z,21.83
2018-08-10T03:02:05.304Z,21.91
2018-08-10T03:03:05.480Z,21.90
2018-08-10T03:04:05.650Z,21.79
2018-08-10T03:05:05.818Z,21.86
2018-08-10T03:06:05.991Z,21.79
2018-08-10T03:07:06.167Z,21.75
2018-08-10T03:08:06.340Z,21.91
2018-08-10T03:09:06.515Z,21.86
2018-08-10T03:10:06.687Z,21.80
2018-08-10T03:11:06.859Z,21.84
2018-08-10T03:12:07.031Z,21.88
2018-08-10T03:13:07.203Z,22.00
2018-08-10T03:14:07.377Z,21.86
2018-08-10T03:15:07.560Z,21.84
2018-08-10T03:16:07.733Z,21.94
2018-08-10T03:17:07.907Z,21.83
2018-08-10T03:18:08.077Z,21.99
2018-08-10T03:19:08.251Z,21.92
2018-08-10T03:20:08.426Z,21.90
2018-08-10T03:21:08.599Z,21.75
2018-08-10T03:22:08.830Z,21.82
2018-08-10T03:23:08.951Z,21.62
2018-08-10T03:24:09.121Z,21.37
2018-08-10T03:25:09.287Z,21.31
2018-08-10T03:26:09.456Z,21.34
2018-08-10T03:27:09.631Z,21.32
2018-08-10T03:28:09.808Z,21.35
2018-08-10T03:29:09.980Z,21.38
2018-08-10T03:30:10.147Z,21.28
2018-08-10T03:31:10.320Z,21.29
2018-08-10T03:32:10.494Z,21.21
2018-08-10T03:33:10.660Z,21.25
2018-08-10T03:34:10.828Z,21.27
2018-08-10T03:35:10.998Z,21.27
2018-08-10T03:36:11.168Z,21.29
2018-08-10T03:37:11.354Z,21.31
2018-08-10T03:38:11.528Z,21.27
2018-08-10T03:39:11.698Z,21.40
2018-08-10T03:40:11.875Z,21.50
2018-08-10T03:41:12.051Z,21.56
2018-08-10T03:42:12.226Z,21.67
2018-08-10T03:43:12.401Z,21.61
2018-08-10T03:44:12.569Z,21.67
2018-08-10T03:45:12.756Z,21.68
2018-08-10T03:46:12.915Z,21.61
2018-08-10T03:47:13.089Z,21.59
2018-08-10T03:48:13.260Z,21.43
2018-08-10T03:49:13.433Z,21.27
2018-08-10T03:50:13.614Z,21.31
2018-08-10T03:51:13.781Z,21.37
2018-08-10T03:52:13.948Z,21.34
2018-08-10T03:53:14.139Z,21.22
2018-08-10T03:54:14.306Z,21.16
2018-08-10T03:55:14.471Z,21.29
2018-08-10T03:56:14.652Z,21.14
2018-08-10T03:57:14.821Z,21.07
2018-08-10T03:58:14.994Z,21.21
2018-08-10T03:59:15.164Z,21.21
2018-08-10T04:00:15.336Z,21.22
2018-08-10T04:01:15.510Z,21.24
2018-08-10T04:02:15.689Z,21.32
2018-08-10T04:03:15.860Z,21.28
2018-08-10T04:04:16.032Z,21.31
2018-08-10T04:05:16.207Z,21.34
2018-08-10T04:06:16.383Z,21.34
2018-08-10T04:07:16.550Z,21.28
2018-08-10T04:08:16.731Z,21.35
2018-08-10T04:09:16.901Z,21.40
2018-08-10T04:10:17.072Z,21.42
2018-08-10T04:11:17.240Z,21.53
2018-08-10T04:12:17.417Z,21.49
2018-08-10T04:13:17.590Z,21.37
2018-08-10T04:14:17.768Z,21.32
2018-08-10T04:15:17.942Z,21.37
2018-08-10T04:16:18.112Z,21.24
2018-08-10T04:17:18.281Z,21.19
2018-08-10T04:18:18.456Z,21.21
2018-08-10T04:19:18.632Z,21.14
2018-08-10T04:20:18.811Z,21.10
2018-08-10T04:21:18.981Z,20.88
2018-08-10T04:22:19.155Z,21.09
2018-08-10T04:23:19.330Z,21.10
2018-08-10T04:24:19.509Z,21.16
2018-08-10T04:25:19.677Z,21.04
2018-08-10T04:26:19.846Z,20.87
2018-08-10T04:27:20.017Z,20.94
2018-08-10T04:28:20.195Z,20.95
2018-08-10T04:29:20.362Z,20.95
2018-08-10T04:30:20.542Z,20.99
2018-08-10T04:31:20.711Z,20.98
2018-08-10T04:32:20.885Z,21.07
2018-08-10T04:33:21.060Z,20.87
2018-08-10T04:34:21.231Z,20.73
2018-08-10T04:35:21.400Z,20.55
2018-08-10T04:36:21.578Z,20.57
2018-08-10T04:37:21.752Z,20.50
2018-08-10T04:38:21.943Z,20.39
2018-08-10T04:39:22.095Z,20.31
2018-08-10T04:40:22.270Z,20.47
2018-08-10T04:41:22.443Z,20.41
2018-08-10T04:42:22.610Z,20.38
2018-08-10T04:43:22.784Z,20.35
2018-08-10T04:44:22.951Z,20.35
2018-08-10T04:45:23.130Z,20.41
2018-08-10T04:46:23.302Z,20.50
2018-08-10T04:47:23.467Z,20.38
2018-08-10T04:48:23.633Z,20.32
2018-08-10T04:49:23.807Z,20.35
2018-08-10T04:50:23.977Z,20.38
2018-08-10T04:51:24.157Z,20.42
2018-08-10T04:52:24.341Z,20.31
2018-08-10T04:53:24.515Z,20.47
2018-08-10T04:54:24.689Z,20.32
2018-08-10T04:55:24.867Z,20.35
2018-08-10T04:56:25.023Z,20.38
2018-08-10T04:57:25.199Z,20.36
2018-08-10T04:58:25.366Z,20.33
2018-08-10T04:59:25.562Z,20.24
2018-08-10T05:00:25.712Z,20.36
2018-08-10T05:01:25.879Z,20.42
2018-08-10T05:02:26.047Z,20.39
2018-08-10T05:03:26.219Z,20.29
2018-08-10T05:04:26.389Z,20.28
2018-08-10T05:05:26.559Z,20.05
2018-08-10T05:06:26.729Z,20.10
2018-08-10T05:07:26.896Z,20.18
2018-08-10T05:08:27.069Z,20.32
2018-08-10T05:09:27.238Z,20.35
2018-08-10T05:10:27.414Z,20.50
2018-08-10T05:11:27.579Z,20.36
2018-08-10T05:12:27.753Z,20.26
2018-08-10T05:13:27.924Z,20.28
2018-08-10T05:14:28.099Z,20.31
2018-08-10T05:15:28.270Z,20.31
2018-08-10T05:16:28.452Z,20.36
2018-08-10T05:17:28.623Z,20.35
2018-08-10T05:18:28.791Z,20.35
2018-08-10T05:19:28.963Z,20.38
2018-08-10T05:20:29.125Z,20.50
2018-08-10T05:21:29.299Z,20.43
2018-08-10T05:22:29.468Z,20.50
2018-08-10T05:23:29.646Z,20.59
2018-08-10T05:24:29.812Z,20.54
2018-08-10T05:25:29.990Z,20.59
2018-08-10T05:26:30.158Z,20.67
2018-08-10T05:27:30.340Z,20.50
2018-08-10T05:28:30.499Z,20.52
2018-08-10T05:29:30.666Z,20.54
2018-08-10T05:30:30.841Z,20.66
2018-08-10T05:31:31.004Z,20.87
2018-08-10T05:32:31.184Z,20.98
2018-08-10T05:33:31.356Z,21.12
2018-08-10T05:34:31.529Z,21.13
2018-08-10T05:35:31.698Z,21.29
2018-08-10T05:36:31.869Z,21.35
2018-08-10T05:37:32.038Z,21.47
2018-08-10T05:38:32.210Z,21.42
2018-08-10T05:39:32.381Z,21.49
2018-08-10T05:40:32.557Z,21.47
2018-08-10T05:41:32.731Z,21.44
2018-08-10T05:42:32.906Z,21.67
2018-08-10T05:43:33.079Z,21.84
2018-08-10T05:44:33.248Z,21.75
2018-08-10T05:45:33.419Z,21.49
2018-08-10T05:46:33.588Z,21.27
2018-08-10T05:47:33.771Z,21.43
2018-08-10T05:48:33.942Z,21.24
2018-08-10T05:49:34.113Z,21.28
2018-08-10T05:50:34.284Z,21.35
2018-08-10T05:51:34.459Z,21.43
2018-08-10T05:52:34.665Z,21.44
2018-08-10T05:53:34.801Z,21.49
2018-08-10T05:54:34.981Z,21.25
2018-08-10T05:55:35.165Z,21.35
2018-08-10T05:56:35.326Z,21.19
2018-08-10T05:57:35.538Z,21.32
2018-08-10T05:58:35.670Z,21.37
2018-08-10T05:59:35.849Z,21.32
2018-08-10T06:00:36.029Z,21.58
2018-08-10T06:01:36.189Z,21.64
2018-08-10T06:02:36.367Z,21.34
2018-08-10T06:03:36.571Z,21.25
2018-08-10T06:04:36.706Z,21.25
2018-08-10T06:05:36.883Z,21.64
2018-08-10T06:06:37.055Z,21.53
2018-08-10T06:07:37.227Z,21.44
2018-08-10T06:08:37.398Z,21.58
2018-08-10T06:09:37.570Z,21.61
2018-08-10T06:10:37.751Z,21.40
2018-08-10T06:11:37.923Z,21.21
2018-08-10T06:12:38.103Z,21.24
2018-08-10T06:13:38.269Z,21.32
2018-08-10T06:14:38.450Z,21.29
2018-08-10T06:15:38.625Z,21.56
2018-08-10T06:16:38.801Z,21.47
2018-08-10T06:17:38.974Z,21.54
2018-08-10T06:18:39.149Z,21.40
2018-08-10T06:19:39.412Z,21.46
2018-08-10T06:20:39.497Z,21.54
2018-08-10T06:21:39.733Z,21.54
2018-08-10T06:22:39.829Z,21.83
2018-08-10T06:23:40.007Z,21.84
2018-08-10T06:24:40.179Z,21.83
2018-08-10T06:25:40.358Z,21.88
2018-08-10T06:26:40.521Z,22.02
2018-08-10T06:27:40.727Z,22.10
2018-08-10T06:28:40.889Z,22.14
2018-08-10T06:29:41.062Z,22.30
2018-08-10T06:30:41.239Z,22.24
2018-08-10T06:31:41.416Z,22.14
2018-08-10T06:32:41.580Z,22.17
2018-08-10T06:33:41.782Z,22.21
2018-08-10T06:34:41.917Z,22.18
2018-08-10T06:35:42.090Z,22.36
2018-08-10T06:36:42.264Z,22.52
2018-08-10T06:37:42.439Z,22.12
2018-08-10T06:38:42.619Z,22.12
2018-08-10T06:39:42.856Z,22.10
2018-08-10T06:40:42.966Z,22.06
2018-08-10T06:41:43.137Z,22.20
2018-08-10T06:42:43.308Z,22.15
2018-08-10T06:43:43.479Z,22.05
2018-08-10T06:44:43.680Z,21.88
2018-08-10T06:45:43.826Z,22.00
2018-08-10T06:46:43.995Z,21.82
2018-08-10T06:47:44.178Z,21.91
2018-08-10T06:48:44.363Z,22.05
2018-08-10T06:49:44.521Z,22.05
2018-08-10T06:50:44.693Z,22.42
2018-08-10T06:51:44.866Z,22.47
2018-08-10T06:52:45.043Z,22.62
2018-08-10T06:53:45.228Z,22.90
2018-08-10T06:54:45.410Z,23.15
2018-08-10T06:55:45.629Z,23.20
2018-08-10T06:56:45.758Z,23.09
2018-08-10T06:57:45.929Z,23.16
2018-08-10T06:58:46.099Z,22.88
2018-08-10T06:59:46.286Z,22.64
2018-08-10T07:00:46.463Z,22.82
2018-08-10T07:01:46.638Z,22.52
2018-08-10T07:02:46.822Z,22.64
2018-08-10T07:03:46.992Z,22.64
2018-08-10T07:04:47.162Z,22.91
2018-08-10T07:05:47.338Z,22.73
2018-08-10T07:06:47.509Z,22.73
2018-08-10T07:07:47.749Z,22.94
2018-08-10T07:08:47.868Z,23.17
2018-08-10T07:09:48.042Z,23.22
2018-08-10T07:10:48.215Z,23.53
2018-08-10T07:11:48.385Z,23.79
2018-08-10T07:12:48.563Z,23.70
2018-08-10T07:13:48.742Z,23.76
2018-08-10T07:14:48.917Z,23.70
2018-08-10T07:15:49.092Z,23.39
2018-08-10T07:16:49.261Z,22.97
2018-08-10T07:17:49.437Z,23.07
2018-08-10T07:18:49.605Z,22.95
2018-08-10T07:19:49.781Z,22.94
2018-08-10T07:20:49.956Z,23.07
2018-08-10T07:21:50.131Z,23.05
2018-08-10T07:22:50.311Z,22.90
2018-08-10T07:23:50.476Z,23.00
2018-08-10T07:24:50.654Z,22.85
2018-08-10T07:25:50.832Z,23.22
2018-08-10T07:26:51.002Z,22.95
2018-08-10T07:27:51.173Z,23.31
2018-08-10T07:28:51.348Z,23.46
2018-08-10T07:29:51.523Z,23.32
2018-08-10T07:30:51.698Z,23.39
2018-08-10T07:31:51.870Z,23.00
2018-08-10T07:32:52.037Z,22.85
2018-08-10T07:33:52.214Z,22.77
2018-08-10T07:34:52.392Z,22.83
2018-08-10T07:35:52.561Z,22.88
2018-08-10T07:36:52.737Z,22.76
2018-08-10T07:37:52.909Z,22.88
2018-08-10T07:38:53.083Z,23.01
2018-08-10T07:39:53.249Z,23.20
2018-08-10T07:40:53.427Z,23.19
2018-08-10T07:41:53.604Z,23.25
2018-08-10T07:42:53.774Z,23.23
2018-08-10T07:43:53.947Z,23.25
2018-08-10T07:44:54.129Z,23.31
2018-08-10T07:45:54.303Z,23.17
2018-08-10T07:46:54.667Z,23.55
2018-08-10T07:47:54.617Z,23.50
2018-08-10T07:48:54.782Z,23.47
2018-08-10T07:49:54.967Z,23.57
2018-08-10T07:50:55.139Z,23.32
2018-08-10T07:51:55.308Z,23.35
2018-08-10T07:52:55.483Z,23.43
2018-08-10T07:53:55.662Z,23.40
2018-08-10T07:54:55.831Z,23.47
2018-08-10T07:55:56.155Z,23.54
2018-08-10T07:56:56.190Z,23.33
2018-08-10T07:57:56.365Z,23.09
2018-08-10T07:58:56.556Z,23.15
2018-08-10T07:59:56.715Z,23.20
2018-08-10T08:00:56.892Z,23.16
2018-08-10T08:01:57.060Z,23.35
2018-08-10T08:02:57.381Z,23.28
2018-08-10T08:03:57.417Z,23.35
2018-08-10T08:04:57.581Z,23.47
2018-08-10T08:05:57.771Z,23.57
2018-08-10T08:06:58.001Z,23.70
2018-08-10T08:07:58.180Z,23.66
2018-08-10T08:08:58.295Z,23.32
2018-08-10T08:09:58.463Z,23.51
2018-08-10T08:10:58.634Z,23.43
2018-08-10T08:11:58.807Z,23.61
2018-08-10T08:12:58.975Z,23.39
2018-08-10T08:13:59.152Z,23.31
2018-08-10T08:14:59.315Z,23.47
2018-08-10T08:15:59.485Z,23.51
2018-08-10T08:16:59.670Z,23.83
2018-08-10T08:17:59.902Z,24.03
2018-08-10T08:19:00.021Z,24.16
2018-08-10T08:20:00.331Z,24.06
2018-08-10T08:21:00.373Z,23.97
2018-08-10T08:22:00.565Z,24.27
2018-08-10T08:23:00.798Z,24.28
2018-08-10T08:24:00.930Z,24.37
2018-08-10T08:25:01.112Z,24.49
2018-08-10T08:26:01.280Z,24.43
2018-08-10T08:27:01.552Z,24.55
2018-08-10T08:28:01.651Z,24.47
2018-08-10T08:29:01.776Z,24.60
2018-08-10T08:30:01.942Z,24.81
2018-08-10T08:31:02.117Z,24.62
2018-08-10T08:32:03.033Z,24.64
2018-08-10T08:33:02.510Z,24.84
2018-08-10T08:34:02.684Z,24.95
2018-08-10T08:35:02.874Z,25.03
2018-08-10T08:36:03.196Z,25.10
2018-08-10T08:37:03.250Z,25.06
2018-08-10T08:38:03.361Z,25.06
2018-08-10T08:39:03.523Z,24.93
2018-08-10T08:40:03.695Z,24.60
2018-08-10T08:41:03.946Z,24.81
2018-08-10T08:42:04.041Z,24.80
2018-08-10T08:43:04.289Z,24.85
2018-08-10T08:44:04.436Z,24.61
2018-08-10T08:45:04.718Z,24.99
2018-08-10T08:46:05.542Z,24.64
2018-08-10T08:47:05.382Z,24.40
2018-08-10T08:48:05.234Z,24.42
2018-08-10T08:49:05.484Z,24.93
2018-08-10T08:50:05.623Z,24.96
2018-08-10T08:51:06.096Z,24.53
2018-08-10T08:52:05.918Z,24.27
2018-08-10T08:53:06.093Z,24.39
2018-08-10T08:54:06.343Z,24.30
2018-08-10T08:55:06.457Z,24.35
2018-08-10T08:56:06.636Z,24.43
2018-08-10T08:57:06.915Z,24.45
2018-08-10T08:58:06.967Z,24.52
2018-08-10T08:59:07.144Z,24.64
2018-08-10T09:00:07.320Z,25.50
2018-08-10T09:01:07.496Z,25.30
2018-08-10T09:02:07.676Z,25.21
2018-08-10T09:03:07.859Z,25.35
2018-08-10T09:04:08.042Z,25.36
2018-08-10T09:05:08.227Z,25.42
2018-08-10T09:06:08.648Z,24.83
2018-08-10T09:07:08.663Z,24.90
2018-08-10T09:08:08.809Z,25.02
2018-08-10T09:09:08.985Z,27.09
2018-08-10T09:10:09.182Z,26.58
2018-08-10T09:11:09.346Z,26.47
2018-08-10T09:12:09.575Z,26.73
2018-08-10T09:13:09.693Z,26.47
2018-08-10T09:14:09.963Z,26.58
2018-08-10T09:15:10.091Z,26.55
2018-08-10T09:16:10.308Z,27.10
2018-08-10T09:17:10.576Z,29.08
2018-08-10T09:18:10.797Z,29.67
2018-08-10T09:19:10.726Z,29.21
2018-08-10T09:20:10.951Z,27.75
2018-08-10T09:21:11.092Z,26.63
2018-08-10T09:22:11.275Z,25.95
2018-08-10T09:23:11.495Z,25.88
2018-08-10T09:24:11.628Z,26.15
2018-08-10T09:25:11.788Z,26.06
2018-08-10T09:26:12.011Z,25.92
2018-08-10T09:27:12.136Z,25.85
2018-08-10T09:28:12.316Z,26.09
2018-08-10T09:29:12.489Z,26.23
2018-08-10T09:30:12.654Z,25.73
2018-08-10T09:31:12.926Z,25.47
2018-08-10T09:32:12.981Z,25.61
2018-08-10T09:33:13.147Z,25.32
2018-08-10T09:34:13.320Z,25.38
2018-08-10T09:35:13.564Z,24.81
2018-08-10T09:36:14.456Z,24.60
2018-08-10T09:37:13.908Z,24.61
2018-08-10T09:38:14.082Z,24.81
2018-08-10T09:39:14.267Z,24.73
2018-08-10T09:40:14.470Z,25.15
2018-08-10T09:41:14.639Z,25.50
2018-08-10T09:42:14.959Z,25.51
2018-08-10T09:43:14.991Z,25.52
2018-08-10T09:44:15.161Z,25.69
2018-08-10T09:45:15.397Z,25.43
2018-08-10T09:46:16.367Z,25.45
2018-08-10T09:47:15.666Z,25.45
2018-08-10T09:48:16.386Z,25.62
2018-08-10T09:49:16.065Z,25.46
2018-08-10T09:50:16.226Z,25.54
2018-08-10T09:51:16.398Z,25.60
2018-08-10T09:52:17.461Z,25.51
2018-08-10T09:53:16.882Z,25.40
2018-08-10T09:54:16.990Z,25.67
2018-08-10T09:55:17.170Z,25.69
2018-08-10T09:56:17.354Z,25.60
2018-08-10T09:57:17.524Z,25.64
2018-08-10T09:58:17.699Z,25.25
2018-08-10T09:59:18.083Z,25.24
2018-08-10T10:00:18.077Z,25.51
2018-08-10T10:01:18.246Z,26.72
2018-08-10T10:02:18.428Z,29.14
2018-08-10T10:03:19.355Z,29.86
2018-08-10T10:04:18.783Z,28.19
2018-08-10T10:05:19.098Z,28.77
2018-08-10T10:06:20.853Z,29.00
2018-08-10T10:07:19.275Z,28.41
2018-08-10T10:08:19.453Z,28.98
2018-08-10T10:09:19.622Z,29.42
2018-08-10T10:10:19.801Z,28.71
2018-08-10T10:11:19.973Z,27.90
2018-08-10T10:12:20.152Z,27.78
2018-08-10T10:13:20.326Z,27.49
2018-08-10T10:14:20.506Z,27.09
2018-08-10T10:15:21.465Z,27.12
2018-08-10T10:16:20.901Z,27.12
2018-08-10T10:17:21.215Z,26.67
2018-08-10T10:18:21.294Z,26.58
2018-08-10T10:19:21.488Z,26.57
2018-08-10T10:20:21.645Z,26.85
2018-08-10T10:21:21.834Z,26.66
2018-08-10T10:22:22.019Z,26.52
2018-08-10T10:23:22.196Z,26.45
2018-08-10T10:24:22.369Z,28.80
2018-08-10T10:25:24.361Z,30.84
2018-08-10T10:26:22.784Z,31.81
2018-08-10T10:27:22.955Z,33.03
2018-08-10T10:28:23.132Z,34.49
2018-08-10T10:29:23.312Z,35.38
2018-08-10T10:30:23.494Z,35.06
2018-08-10T10:31:23.683Z,36.65
2018-08-10T10:32:23.860Z,34.99
2018-08-10T10:33:24.034Z,33.63
2018-08-10T10:34:24.231Z,34.34
2018-08-10T10:35:24.462Z,33.91
2018-08-10T10:36:24.606Z,34.61
2018-08-10T10:37:24.791Z,35.16
2018-08-10T10:38:24.988Z,35.92
2018-08-10T10:39:25.169Z,36.29
2018-08-10T10:40:25.357Z,36.59
2018-08-10T10:41:25.578Z,37.51
2018-08-10T10:42:25.728Z,37.66
2018-08-10T10:43:25.927Z,37.47
2018-08-10T10:44:26.098Z,37.94
2018-08-10T10:45:26.283Z,37.78
2018-08-10T10:46:26.472Z,38.25
2018-08-10T10:47:26.692Z,39.06
2018-08-10T10:48:26.850Z,36.94
2018-08-10T10:49:27.032Z,37.86
2018-08-10T10:50:27.211Z,38.38
2018-08-10T10:51:27.413Z,38.37
2018-08-10T10:52:27.594Z,36.78
2018-08-10T10:53:27.790Z,38.16
2018-08-10T10:54:27.958Z,38.16
2018-08-10T10:55:28.213Z,38.90
2018-08-10T10:56:28.456Z,39.25
2018-08-10T10:57:28.541Z,38.99
2018-08-10T10:58:28.743Z,39.86
2018-08-10T10:59:28.929Z,38.35
2018-08-10T11:00:29.122Z,37.15
2018-08-10T11:01:29.304Z,35.47
2018-08-10T11:02:29.671Z,33.90
2018-08-10T11:03:29.685Z,36.19
2018-08-10T11:04:29.879Z,37.29
2018-08-10T11:05:30.070Z,35.44
2018-08-10T11:06:30.257Z,33.95
2018-08-10T11:07:30.448Z,32.62
2018-08-10T11:08:30.627Z,33.88
2018-08-10T11:09:30.822Z,34.03
2018-08-10T11:10:31.003Z,35.18
2018-08-10T11:11:31.186Z,35.72
2018-08-10T11:12:31.384Z,35.40
2018-08-10T11:13:31.807Z,36.75
2018-08-10T11:14:31.759Z,37.02
2018-08-10T11:15:31.942Z,37.59
2018-08-10T11:16:32.127Z,38.60
2018-08-10T11:17:32.318Z,38.84
2018-08-10T11:18:32.508Z,37.02
2018-08-10T11:19:32.707Z,38.01
2018-08-10T11:20:32.888Z,39.29
2018-08-10T11:21:33.089Z,37.49
2018-08-10T11:22:33.293Z,37.05
2018-08-10T11:23:33.471Z,37.51
2018-08-10T11:24:33.661Z,36.94
2018-08-10T11:25:33.899Z,36.05
2018-08-10T11:26:34.045Z,37.72
2018-08-10T11:27:34.320Z,39.01
2018-08-10T11:28:34.387Z,39.18
2018-08-10T11:29:34.573Z,39.88
2018-08-10T11:30:34.797Z,40.67
2018-08-10T11:31:34.986Z,41.20
2018-08-10T11:32:35.174Z,41.51
2018-08-10T11:33:35.369Z,38.75
2018-08-10T11:34:35.570Z,40.31
2018-08-10T11:35:35.756Z,38.01
2018-08-10T11:36:35.953Z,38.07
2018-08-10T11:37:36.148Z,38.47
2018-08-10T11:38:36.339Z,37.64
2018-08-10T11:39:36.528Z,38.71
2018-08-10T11:40:36.722Z,37.81
2018-08-10T11:41:36.992Z,37.66
2018-08-10T11:42:37.107Z,35.77
2018-08-10T11:43:37.297Z,35.23
2018-08-10T11:44:37.495Z,35.33
2018-08-10T11:45:37.694Z,34.47
2018-08-10T11:46:37.887Z,33.38
2018-08-10T11:47:38.080Z,33.50
2018-08-10T11:48:38.268Z,33.28
2018-08-10T11:49:38.466Z,32.74
2018-08-10T11:50:38.659Z,32.66
2018-08-10T11:51:38.845Z,32.40
2018-08-10T11:52:39.092Z,34.24
2018-08-10T11:53:39.219Z,35.19
2018-08-10T11:54:40.335Z,36.65
2018-08-10T11:55:39.608Z,36.65
2018-08-10T11:56:39.784Z,36.56
2018-08-10T11:57:39.979Z,37.72
2018-08-10T11:58:40.169Z,38.47
2018-08-10T11:59:40.361Z,36.59
2018-08-10T12:00:40.549Z,34.52
2018-08-10T12:01:40.739Z,33.88
2018-08-10T12:02:40.948Z,33.19
2018-08-10T12:03:41.135Z,32.04
2018-08-10T12:04:41.339Z,31.44
2018-08-10T12:05:41.564Z,31.16
2018-08-10T12:06:41.636Z,30.86
2018-08-10T12:07:41.818Z,30.58
2018-08-10T12:08:42.007Z,30.69
2018-08-10T12:09:42.200Z,30.80
2018-08-10T12:10:42.446Z,30.89
2018-08-10T12:11:42.581Z,32.55
2018-08-10T12:12:42.784Z,33.07
2018-08-10T12:13:42.946Z,32.48
2018-08-10T12:14:43.136Z,32.18
2018-08-10T12:15:43.445Z,32.01
2018-08-10T12:16:43.521Z,30.88
2018-08-10T12:17:43.701Z,30.31
2018-08-10T12:18:43.897Z,30.37
2018-08-10T12:19:44.886Z,31.20
2018-08-10T12:20:44.304Z,31.96
2018-08-10T12:21:44.490Z,31.69
2018-08-10T12:22:44.672Z,33.07
2018-08-10T12:23:44.858Z,34.12
2018-08-10T12:24:45.058Z,35.10
2018-08-10T12:25:45.227Z,36.75
2018-08-10T12:26:45.449Z,36.19
2018-08-10T12:27:45.582Z,34.80
2018-08-10T12:28:45.765Z,35.62
2018-08-10T12:29:45.941Z,35.78
2018-08-10T12:30:46.130Z,35.48
2018-08-10T12:31:46.311Z,34.50
2018-08-10T12:32:46.498Z,33.86
2018-08-10T12:33:46.686Z,33.50
2018-08-10T12:34:46.871Z,33.07
2018-08-10T12:35:47.049Z,32.57
2018-08-10T12:36:47.246Z,31.95
2018-08-10T12:37:47.420Z,32.23
2018-08-10T12:38:47.608Z,31.66
2018-08-10T12:39:47.788Z,31.43
2018-08-10T12:40:47.975Z,31.38
2018-08-10T12:41:48.164Z,31.09
2018-08-10T12:42:48.418Z,31.14
2018-08-10T12:43:48.485Z,30.91
2018-08-10T12:44:48.714Z,30.19
2018-08-10T12:45:48.895Z,29.79
2018-08-10T12:46:49.085Z,29.57
2018-08-10T12:47:49.244Z,29.70
2018-08-10T12:48:49.741Z,29.33
2018-08-10T12:49:49.703Z,29.52
2018-08-10T12:50:49.817Z,29.65
2018-08-10T12:51:50.036Z,29.73
2018-08-10T12:52:50.264Z,29.89
2018-08-10T12:53:50.396Z,29.86
2018-08-10T12:54:50.596Z,29.80
2018-08-10T12:55:50.754Z,29.68